Oakland, MD

6:53 PM EDT on July 28, 2016 (GMT -0400)
3634 Hutton Road | | Change Station

Elev 2562 ft 39.39 °N, 79.44 °W | Updated 8 minutes ago

Mostly Cloudy
Mostly Cloudy
66.4 °F
Feels Like 66.4 °F
N
0.0
Wind Variable Wind from SE

Today
High -- | Low -- °F
--% Chance of Precip.
Yesterday
High -- | Low -- °F
Precip. -- in
Pressure 29.99 in
Visibility 4.0 miles
Clouds Mostly Cloudy 6000 ft
Mostly Cloudy 7000 ft
Dew Point 66 °F
Humidity 99%
Rainfall 0.00 in
Snow Depth Not available.
6:14 AM 8:33 PM
Waning Crescent, 28% visible
METAR K2G4 282245Z AUTO 10006KT 4SM BR BKN060 BKN070 18/18 A2999 RMK AO1
Pressure 29.99 in
Visibility 4.0 miles
Clouds Mostly Cloudy 6000 ft
Mostly Cloudy 7000 ft
Dew Point 66 °F
Humidity 99%
Rainfall 0.00 in
Snow Depth Not available.
6:14 AM 8:33 PM
Waning Crescent, 28% visible
METAR K2G4 282245Z AUTO 10006KT 4SM BR BKN060 BKN070 18/18 A2999 RMK AO1

10-Day Weather Forecast

Almanac

Astronomy

Jul. 28, 2016 Rise Set
Actual Time
Civil Twilight
Nautical Twilight
Astronomical Twilight
Moon
Length of Visible Light
Length of Day
Tomorrow will be .
, % of the Moon is Illuminated

Today's Extremes

State Highs State Lows

Community

WunderPhotos

Upload Photos

1,928,220 photos uploaded!

WunderBlog® & News

Nearby

Air Quality

  Air Quality AQ Index Pollutant
Not available.

Snow Depth

Station Depth Elevation

Earthquake Activity

City Distance Mag. Time & Date
Minimum magnitude displayed is 2.5.

Coastal Water Temperatures

Place Temperature

Stations

Nearby Weather Stations

Station Location Temp. Windchill Dew Point Humidity Wind Precip. Elev Updated Type
                   

Watches & Warnings

There are currently no watches in effect.